Time;durP1;ratioP1;P1;durP2;ratioP2;P2;SDS_P1;SDS_P2;PMS_P1;PMS_P2;Temp;Humidity;BMP_temperature;BMP_pressure;BME280_temperature;BME280_humidity;BME280_pressure;Samples;Min_cycle;Max_cycle;Signal;HPM_P1;HPM_P2
2021/03/17 00:00:28;;;;;;;;;;;15.20;58.40;;;;;;4917815;29;19907;-56
2021/03/17 00:02:53;;;;;;;;;;;15.20;58.50;;;;;;4917933;29;19915;-56
2021/03/17 00:05:20;;;;;;;;;;;15.10;58.50;;;;;;4917974;29;19950;-55
2021/03/17 00:07:45;;;;;;;;;;;15.20;58.50;;;;;;4917620;29;19914;-55
2021/03/17 00:10:11;;;;;;;;;;;15.10;58.50;;;;;;4918711;28;19927;-56
2021/03/17 00:12:37;;;;;;;;;;;15.10;58.50;;;;;;4917445;29;19950;-56
2021/03/17 00:15:03;;;;;;;;;;;15.90;59.00;;;;;;4917489;29;19938;-56
2021/03/17 00:17:28;;;;;;;;;;;15.20;58.60;;;;;;4917141;29;19929;-56
2021/03/17 00:19:54;;;;;;;;;;;15.00;58.60;;;;;;4917516;29;20343;-55
2021/03/17 00:22:19;;;;;;;;;;;15.10;58.60;;;;;;4917622;29;19915;-56
2021/03/17 00:24:45;;;;;;;;;;;15.50;58.80;;;;;;4917263;29;20032;-56
2021/03/17 00:27:10;;;;;;;;;;;15.10;58.70;;;;;;4917221;29;19930;-55
2021/03/17 00:29:36;;;;;;;;;;;15.10;58.70;;;;;;4917273;29;20330;-56
2021/03/17 00:32:01;;;;;;;;;;;14.90;58.60;;;;;;4917509;29;19907;-56
2021/03/17 00:34:27;;;;;;;;;;;15.10;58.70;;;;;;4917351;29;20362;-56
2021/03/17 00:36:52;;;;;;;;;;;15.00;58.70;;;;;;4917516;29;19914;-56
2021/03/17 00:39:18;;;;;;;;;;;14.80;58.60;;;;;;4917370;29;19907;-55
2021/03/17 00:41:43;;;;;;;;;;;14.80;58.60;;;;;;4917223;29;19911;-55
2021/03/17 00:44:09;;;;;;;;;;;15.00;58.70;;;;;;4917271;29;19907;-56
2021/03/17 00:46:34;;;;;;;;;;;15.00;58.70;;;;;;4917179;29;20378;-56
2021/03/17 00:49:00;;;;;;;;;;;15.00;58.80;;;;;;4917194;29;19911;-56
2021/03/17 00:51:25;;;;;;;;;;;15.00;58.80;;;;;;4916832;29;19917;-56
2021/03/17 00:53:51;;;;;;;;;;;15.00;58.80;;;;;;4917197;29;19922;-56
2021/03/17 00:56:16;;;;;;;;;;;14.90;58.80;;;;;;4916544;29;20355;-56
2021/03/17 00:58:42;;;;;;;;;;;15.00;58.80;;;;;;4917109;29;19907;-55
2021/03/17 01:01:07;;;;;;;;;;;15.00;58.80;;;;;;4916709;29;20005;-56
2021/03/17 01:03:33;;;;;;;;;;;14.70;58.70;;;;;;4916967;29;19915;-57
2021/03/17 01:05:58;;;;;;;;;;;14.90;58.80;;;;;;4916802;29;20398;-56
2021/03/17 01:08:23;;;;;;;;;;;14.90;58.90;;;;;;4917094;28;20414;-55
2021/03/17 01:10:49;;;;;;;;;;;14.90;58.90;;;;;;4916405;29;19974;-55
2021/03/17 01:13:15;;;;;;;;;;;14.90;59.00;;;;;;4916479;29;20363;-55
2021/03/17 01:15:41;;;;;;;;;;;14.80;58.90;;;;;;4916487;29;19914;-56
2021/03/17 01:18:06;;;;;;;;;;;14.70;58.90;;;;;;4916701;29;19911;-56
2021/03/17 01:20:34;;;;;;;;;;;14.80;58.90;;;;;;4916571;29;19907;-55
2021/03/17 01:23:00;;;;;;;;;;;14.70;58.90;;;;;;4916054;29;19918;-56
2021/03/17 01:25:35;;;;;;;;;;;14.80;59.00;;;;;;4916690;29;20006;-56
2021/03/17 01:28:03;;;;;;;;;;;14.80;58.90;;;;;;4915989;29;19915;-56
2021/03/17 01:30:30;;;;;;;;;;;14.80;59.00;;;;;;4915938;29;19953;-56
2021/03/17 01:32:55;;;;;;;;;;;14.60;58.90;;;;;;4916137;29;19958;-56
2021/03/17 01:35:21;;;;;;;;;;;14.80;59.00;;;;;;4916463;29;19915;-56
2021/03/17 01:37:46;;;;;;;;;;;14.80;59.00;;;;;;4916261;29;19915;-56
2021/03/17 01:40:12;;;;;;;;;;;14.60;58.90;;;;;;4916369;29;20325;-56
2021/03/17 01:42:38;;;;;;;;;;;14.80;59.00;;;;;;4916109;29;19915;-56
2021/03/17 01:45:06;;;;;;;;;;;14.70;59.00;;;;;;4916292;29;19914;-56
2021/03/17 01:47:31;;;;;;;;;;;14.70;59.00;;;;;;4916436;29;19915;-55
2021/03/17 01:49:57;;;;;;;;;;;14.70;59.10;;;;;;4916136;29;19914;-56
2021/03/17 01:52:22;;;;;;;;;;;14.70;59.10;;;;;;4916128;29;20013;-56
2021/03/17 01:54:48;;;;;;;;;;;14.70;59.10;;;;;;4915988;29;20430;-56
2021/03/17 01:57:13;;;;;;;;;;;14.60;59.10;;;;;;4899073;29;19914;-55
2021/03/17 01:59:39;;;;;;;;;;;14.70;59.20;;;;;;4916285;29;19963;-56
2021/03/17 02:02:06;;;;;;;;;;;14.70;59.10;;;;;;4916123;29;19971;-56
2021/03/17 02:04:32;;;;;;;;;;;14.70;59.20;;;;;;4916274;29;19911;-56
2021/03/17 02:06:57;;;;;;;;;;;14.60;59.20;;;;;;4916228;29;19907;-56
2021/03/17 02:09:23;;;;;;;;;;;14.60;59.20;;;;;;4916508;28;19919;-55
2021/03/17 02:11:54;;;;;;;;;;;14.60;59.30;;;;;;4898932;29;19907;-56
2021/03/17 02:14:22;;;;;;;;;;;14.40;59.10;;;;;;4916042;29;19907;-56
2021/03/17 02:16:57;;;;;;;;;;;14.60;59.10;;;;;;4915873;29;19962;-56
2021/03/17 02:19:31;;;;;;;;;;;14.60;59.10;;;;;;4915706;29;19942;-56
2021/03/17 02:22:16;;;;;;;;;;;14.60;59.20;;;;;;4915754;29;20350;-56
2021/03/17 02:24:49;;;;;;;;;;;14.60;59.20;;;;;;4916255;29;19911;-55
2021/03/17 02:27:21;;;;;;;;;;;14.60;59.20;;;;;;4915754;29;19915;-56
2021/03/17 02:30:05;;;;;;;;;;;14.50;59.20;;;;;;4899199;29;19911;-55
2021/03/17 02:32:53;;;;;;;;;;;14.50;59.20;;;;;;4915807;29;20054;-56
2021/03/17 02:35:21;;;;;;;;;;;14.60;59.20;;;;;;4915840;29;19907;-56
2021/03/17 02:37:48;;;;;;;;;;;14.40;59.20;;;;;;4915623;29;19929;-55
2021/03/17 02:40:20;;;;;;;;;;;14.50;59.20;;;;;;4916662;29;19914;-56
2021/03/17 02:42:47;;;;;;;;;;;14.50;59.20;;;;;;4919323;29;19916;-56
2021/03/17 02:45:16;;;;;;;;;;;14.50;59.20;;;;;;4919243;29;19907;-55
2021/03/17 02:48:02;;;;;;;;;;;14.50;59.30;;;;;;4919223;29;19907;-56
2021/03/17 02:50:29;;;;;;;;;;;14.50;59.20;;;;;;4918548;29;19930;-56
2021/03/17 02:52:55;;;;;;;;;;;14.40;59.20;;;;;;4919241;29;19911;-56
2021/03/17 02:55:24;;;;;;;;;;;14.50;59.20;;;;;;4919024;29;19911;-56
2021/03/17 02:57:51;;;;;;;;;;;14.50;59.30;;;;;;4918908;29;20330;-56
2021/03/17 03:00:17;;;;;;;;;;;14.70;59.40;;;;;;4918943;29;20278;-56
2021/03/17 03:02:43;;;;;;;;;;;14.50;59.20;;;;;;4919030;29;19926;-55
2021/03/17 03:05:11;;;;;;;;;;;14.20;59.10;;;;;;4918997;29;19907;-55
2021/03/17 03:07:37;;;;;;;;;;;14.50;59.30;;;;;;4918849;29;19957;-55
2021/03/17 03:10:06;;;;;;;;;;;14.40;59.30;;;;;;4902330;29;19954;-56
2021/03/17 03:12:32;;;;;;;;;;;14.40;59.30;;;;;;4901575;29;19971;-56
2021/03/17 03:14:57;;;;;;;;;;;14.40;59.30;;;;;;4918640;29;19955;-56
2021/03/17 03:17:23;;;;;;;;;;;14.40;59.30;;;;;;4918772;29;19907;-55
2021/03/17 03:19:51;;;;;;;;;;;14.40;59.30;;;;;;4918646;29;20274;-56
2021/03/17 03:22:16;;;;;;;;;;;14.40;59.40;;;;;;4918455;29;19982;-56
2021/03/17 03:24:42;;;;;;;;;;;14.40;59.40;;;;;;4918464;29;20398;-56
2021/03/17 03:27:08;;;;;;;;;;;14.40;59.40;;;;;;4918585;29;19907;-56
2021/03/17 03:29:34;;;;;;;;;;;14.40;59.50;;;;;;4918615;29;20274;-56
2021/03/17 03:32:01;;;;;;;;;;;15.10;59.70;;;;;;4918459;29;19907;-55
2021/03/17 03:34:26;;;;;;;;;;;14.30;59.30;;;;;;4918393;29;20039;-56
2021/03/17 03:36:52;;;;;;;;;;;14.30;59.40;;;;;;4918507;29;20009;-55
2021/03/17 03:39:17;;;;;;;;;;;14.40;59.40;;;;;;4918056;29;19907;-56
2021/03/17 03:41:43;;;;;;;;;;;14.20;59.30;;;;;;4918359;29;19915;-55
2021/03/17 03:44:08;;;;;;;;;;;14.10;59.30;;;;;;4918331;29;20406;-56
2021/03/17 03:46:34;;;;;;;;;;;14.20;59.30;;;;;;4917779;29;19908;-55
2021/03/17 03:49:01;;;;;;;;;;;14.30;59.40;;;;;;4918314;29;20018;-56
2021/03/17 03:51:27;;;;;;;;;;;14.20;59.40;;;;;;4917394;29;19918;-56
2021/03/17 03:53:58;;;;;;;;;;;14.20;59.40;;;;;;4918004;29;19907;-56
2021/03/17 03:56:26;;;;;;;;;;;14.30;59.40;;;;;;4918040;29;19931;-56
2021/03/17 03:59:05;;;;;;;;;;;14.30;59.40;;;;;;4918073;29;19911;-55
2021/03/17 04:01:44;;;;;;;;;;;14.30;59.40;;;;;;4917706;29;20537;-56
2021/03/17 04:04:11;;;;;;;;;;;14.30;59.40;;;;;;4918072;29;19915;-56
2021/03/17 04:06:38;;;;;;;;;;;14.20;59.40;;;;;;4917873;29;19918;-56
2021/03/17 04:09:04;;;;;;;;;;;14.10;59.40;;;;;;4917896;29;20342;-55
2021/03/17 04:11:29;;;;;;;;;;;14.30;59.50;;;;;;4900533;29;19911;-56
2021/03/17 04:13:56;;;;;;;;;;;14.30;59.60;;;;;;4917745;29;20374;-55
2021/03/17 04:16:22;;;;;;;;;;;14.10;59.50;;;;;;4917419;29;19911;-55
2021/03/17 04:18:49;;;;;;;;;;;14.20;59.50;;;;;;4917612;29;19914;-56
2021/03/17 04:21:18;;;;;;;;;;;14.10;59.50;;;;;;4917429;29;19907;-56
2021/03/17 04:23:45;;;;;;;;;;;14.20;59.50;;;;;;4917459;29;19914;-56
2021/03/17 04:26:11;;;;;;;;;;;14.20;59.60;;;;;;4917556;29;20298;-57
2021/03/17 04:28:37;;;;;;;;;;;14.50;59.80;;;;;;4917207;29;19911;-55
2021/03/17 04:31:03;;;;;;;;;;;14.20;59.60;;;;;;4917344;29;19907;-57
2021/03/17 04:33:30;;;;;;;;;;;14.20;59.60;;;;;;4917338;29;19914;-56
2021/03/17 04:35:56;;;;;;;;;;;14.20;59.60;;;;;;4917151;29;20016;-56
2021/03/17 04:38:22;;;;;;;;;;;14.20;60.30;;;;;;4916916;29;20389;-57
2021/03/17 04:40:48;;;;;;;;;;;14.20;59.60;;;;;;4917191;29;20002;-56
2021/03/17 04:43:21;;;;;;;;;;;14.10;59.70;;;;;;4917099;29;19915;-55
2021/03/17 04:45:47;;;;;;;;;;;14.10;59.60;;;;;;4916886;29;20682;-55
2021/03/17 04:48:12;;;;;;;;;;;14.10;59.70;;;;;;4917090;29;19915;-55
2021/03/17 04:50:38;;;;;;;;;;;14.00;59.60;;;;;;4916840;29;19907;-56
2021/03/17 04:53:04;;;;;;;;;;;14.20;59.70;;;;;;4916913;29;20278;-55
2021/03/17 04:55:30;;;;;;;;;;;14.10;59.60;;;;;;4916958;29;19931;-56
2021/03/17 04:57:56;;;;;;;;;;;14.10;59.60;;;;;;4916880;29;19907;-55
2021/03/17 05:00:22;;;;;;;;;;;14.50;59.90;;;;;;4916991;29;19946;-55
2021/03/17 05:02:56;;;;;;;;;;;14.10;59.70;;;;;;4916788;29;20026;-56
2021/03/17 05:05:23;;;;;;;;;;;14.10;59.70;;;;;;4916934;29;19918;-56
2021/03/17 05:07:49;;;;;;;;;;;14.10;59.70;;;;;;4899663;29;20322;-56
2021/03/17 05:10:22;;;;;;;;;;;13.90;59.60;;;;;;4917179;28;19923;-55
2021/03/17 05:12:54;;;;;;;;;;;14.10;59.70;;;;;;4916326;29;20014;-56
2021/03/17 05:15:21;;;;;;;;;;;14.10;59.70;;;;;;4916745;29;19911;-56
2021/03/17 05:17:48;;;;;;;;;;;14.10;59.80;;;;;;4916675;29;19907;-56
2021/03/17 05:20:15;;;;;;;;;;;13.90;59.70;;;;;;4916342;29;20358;-55
2021/03/17 05:22:44;;;;;;;;;;;14.10;59.80;;;;;;4899389;29;19943;-56
2021/03/17 05:25:10;;;;;;;;;;;14.10;59.70;;;;;;4916260;29;19911;-56
2021/03/17 05:27:37;;;;;;;;;;;14.10;59.80;;;;;;4916699;29;19907;-55
2021/03/17 05:30:07;;;;;;;;;;;14.10;59.80;;;;;;4916743;29;20310;-56
2021/03/17 05:32:32;;;;;;;;;;;14.10;59.70;;;;;;4916567;29;20336;-55
2021/03/17 05:34:59;;;;;;;;;;;14.00;59.80;;;;;;4916567;29;20002;-56
2021/03/17 05:37:25;;;;;;;;;;;14.00;59.80;;;;;;4916326;29;19998;-53
2021/03/17 05:39:50;;;;;;;;;;;14.00;59.80;;;;;;4916451;29;19950;-55
2021/03/17 05:42:16;;;;;;;;;;;13.80;59.70;;;;;;4916145;29;19915;-56
2021/03/17 05:44:42;;;;;;;;;;;14.00;59.80;;;;;;4916175;29;19911;-55
2021/03/17 05:47:08;;;;;;;;;;;14.60;60.20;;;;;;4916134;29;19989;-55
2021/03/17 05:49:34;;;;;;;;;;;14.00;60.00;;;;;;4916421;29;19907;-56
2021/03/17 05:52:00;;;;;;;;;;;13.80;59.90;;;;;;4916396;29;19907;-55
2021/03/17 05:54:27;;;;;;;;;;;14.00;60.00;;;;;;4916181;29;19914;-55
2021/03/17 05:56:52;;;;;;;;;;;13.80;60.00;;;;;;4916316;29;20010;-55
2021/03/17 05:59:18;;;;;;;;;;;14.00;60.00;;;;;;4916282;29;19975;-56
2021/03/17 06:01:44;;;;;;;;;;;14.00;60.10;;;;;;4915942;29;20318;-56
2021/03/17 06:04:09;;;;;;;;;;;14.00;60.30;;;;;;4915893;29;19907;-56
2021/03/17 06:06:37;;;;;;;;;;;13.80;60.60;;;;;;4898955;29;19958;-55
2021/03/17 06:09:03;;;;;;;;;;;14.10;60.80;;;;;;4916442;28;19907;-56
2021/03/17 06:11:30;;;;;;;;;;;14.10;61.00;;;;;;4915914;29;20524;-54
2021/03/17 06:13:56;;;;;;;;;;;14.20;60.60;;;;;;4915716;29;19907;-55
2021/03/17 06:16:23;;;;;;;;;;;14.10;60.50;;;;;;4918715;29;19993;-55
2021/03/17 06:19:02;;;;;;;;;;;14.20;60.50;;;;;;4919813;29;19963;-53
2021/03/17 06:21:28;;;;;;;;;;;14.30;60.40;;;;;;4919541;29;20379;-56
2021/03/17 06:23:55;;;;;;;;;;;14.30;60.30;;;;;;4919715;29;19969;-56
2021/03/17 06:26:21;;;;;;;;;;;14.40;60.30;;;;;;4919749;29;19946;-55
2021/03/17 06:28:47;;;;;;;;;;;14.30;60.30;;;;;;4919729;29;20341;-55
2021/03/17 06:31:12;;;;;;;;;;;14.40;60.20;;;;;;4919671;29;19917;-54
2021/03/17 06:33:39;;;;;;;;;;;14.50;60.00;;;;;;4919460;29;19907;-52
2021/03/17 06:36:15;;;;;;;;;;;14.50;60.00;;;;;;4919314;29;19938;-55
2021/03/17 06:38:41;;;;;;;;;;;14.60;60.00;;;;;;4919406;29;20055;-54
2021/03/17 06:41:06;;;;;;;;;;;14.60;60.10;;;;;;4919607;29;20585;-57
2021/03/17 06:43:39;;;;;;;;;;;14.60;59.80;;;;;;4919311;29;19919;-57
2021/03/17 06:46:05;;;;;;;;;;;14.60;60.40;;;;;;4919230;29;19915;-57
2021/03/17 06:48:32;;;;;;;;;;;14.50;60.30;;;;;;4919011;29;19911;-55
2021/03/17 06:51:01;;;;;;;;;;;14.70;60.40;;;;;;4919076;29;19919;-56
2021/03/17 06:53:38;;;;;;;;;;;14.80;60.30;;;;;;4919242;29;19906;-56
2021/03/17 06:56:26;;;;;;;;;;;14.80;60.20;;;;;;4918907;29;19907;-56
2021/03/17 06:58:54;;;;;;;;;;;14.90;60.20;;;;;;4912467;29;19947;-55
2021/03/17 07:01:22;;;;;;;;;;;15.00;59.80;;;;;;4919038;29;20005;-55
2021/03/17 07:03:55;;;;;;;;;;;15.10;59.80;;;;;;4918885;29;19947;-56
2021/03/17 07:06:21;;;;;;;;;;;15.10;60.10;;;;;;4919052;29;19949;-56
2021/03/17 07:08:46;;;;;;;;;;;15.20;59.50;;;;;;4918847;29;20334;-56
2021/03/17 07:11:12;;;;;;;;;;;15.30;59.40;;;;;;4919413;29;20061;-55
2021/03/17 07:13:37;;;;;;;;;;;15.40;59.30;;;;;;4918774;29;19918;-54
2021/03/17 07:16:03;;;;;;;;;;;15.40;59.20;;;;;;4918690;29;20401;-55
2021/03/17 07:18:29;;;;;;;;;;;15.30;59.00;;;;;;4918756;29;19907;-54
2021/03/17 07:20:56;;;;;;;;;;;15.60;59.00;;;;;;4918677;29;19911;-55
2021/03/17 07:23:24;;;;;;;;;;;15.50;58.80;;;;;;4918631;29;19950;-56
2021/03/17 07:26:08;;;;;;;;;;;15.50;58.70;;;;;;4901142;29;20479;-51
2021/03/17 07:28:49;;;;;;;;;;;15.60;58.50;;;;;;4917714;29;19907;-55
2021/03/17 07:31:16;;;;;;;;;;;15.60;58.40;;;;;;4918680;29;19914;-55
2021/03/17 07:33:41;;;;;;;;;;;15.60;58.40;;;;;;4918414;29;20255;-55
2021/03/17 07:36:07;;;;;;;;;;;15.70;58.40;;;;;;4918628;29;19918;-54
2021/03/17 07:38:33;;;;;;;;;;;15.70;58.40;;;;;;4918389;29;19911;-55
2021/03/17 07:40:58;;;;;;;;;;;15.50;58.30;;;;;;4918619;29;19933;-53
2021/03/17 07:43:26;;;;;;;;;;;15.60;58.30;;;;;;4918160;29;19915;-54
2021/03/17 07:45:52;;;;;;;;;;;15.90;58.30;;;;;;4918395;29;20270;-54
2021/03/17 07:48:18;;;;;;;;;;;15.70;58.20;;;;;;4918409;29;19911;-55
2021/03/17 07:50:43;;;;;;;;;;;15.70;58.00;;;;;;4918359;29;19907;-53
2021/03/17 07:53:23;;;;;;;;;;;15.60;57.80;;;;;;4918315;29;19935;-54
2021/03/17 07:55:49;;;;;;;;;;;15.80;58.00;;;;;;4917980;29;19944;-51
2021/03/17 07:58:15;;;;;;;;;;;15.80;58.20;;;;;;4918050;29;19907;-55
2021/03/17 08:00:41;;;;;;;;;;;15.90;59.60;;;;;;4918016;29;19918;-53
2021/03/17 08:03:07;;;;;;;;;;;16.20;59.80;;;;;;4918163;29;20013;-54
2021/03/17 08:05:36;;;;;;;;;;;15.90;59.70;;;;;;4917983;29;19922;-54
2021/03/17 08:08:02;;;;;;;;;;;16.00;60.20;;;;;;4917836;29;19907;-54
2021/03/17 08:10:27;;;;;;;;;;;16.00;60.40;;;;;;4918495;28;19923;-55
2021/03/17 08:12:54;;;;;;;;;;;15.80;60.40;;;;;;4900760;29;20365;-54
2021/03/17 08:15:19;;;;;;;;;;;15.80;60.40;;;;;;4918033;29;19994;-55
2021/03/17 08:17:45;;;;;;;;;;;15.90;60.70;;;;;;4918015;29;19948;-55
2021/03/17 08:20:23;;;;;;;;;;;16.20;61.00;;;;;;4917875;29;19911;-55
2021/03/17 08:22:50;;;;;;;;;;;15.80;61.10;;;;;;4917386;29;20381;-55
2021/03/17 08:25:34;;;;;;;;;;;15.70;61.60;;;;;;4917544;29;19907;-55
2021/03/17 08:28:18;;;;;;;;;;;15.70;61.90;;;;;;4917621;29;19907;-56
2021/03/17 08:30:43;;;;;;;;;;;15.70;62.10;;;;;;4917527;29;19962;-55
2021/03/17 08:33:09;;;;;;;;;;;15.70;62.40;;;;;;4917147;29;20326;-55
2021/03/17 08:35:53;;;;;;;;;;;15.40;62.40;;;;;;4917290;29;19955;-55
2021/03/17 08:38:19;;;;;;;;;;;15.70;62.10;;;;;;4916774;29;19907;-55
2021/03/17 08:40:45;;;;;;;;;;;15.60;61.70;;;;;;4917162;29;19915;-56
2021/03/17 08:43:29;;;;;;;;;;;15.70;61.60;;;;;;4899993;29;19915;-56
2021/03/17 08:46:20;;;;;;;;;;;15.60;61.40;;;;;;4916968;29;20005;-57
2021/03/17 08:48:53;;;;;;;;;;;15.60;61.20;;;;;;4914833;29;19907;-56
2021/03/17 08:51:39;;;;;;;;;;;15.60;61.10;;;;;;4899975;29;19914;-55
2021/03/17 08:54:24;;;;;;;;;;;15.30;60.80;;;;;;4916667;29;19973;-55
2021/03/17 08:56:49;;;;;;;;;;;15.50;60.80;;;;;;4916717;29;20006;-56
2021/03/17 08:59:18;;;;;;;;;;;15.50;60.80;;;;;;4916480;29;19998;-56
2021/03/17 09:01:43;;;;;;;;;;;15.50;60.70;;;;;;4916631;29;19939;-55
2021/03/17 09:04:09;;;;;;;;;;;15.50;60.70;;;;;;4899613;29;19958;-54
2021/03/17 09:06:34;;;;;;;;;;;15.50;60.60;;;;;;4916890;29;19911;-56
2021/03/17 09:09:04;;;;;;;;;;;15.40;60.60;;;;;;4916691;29;19955;-55
2021/03/17 09:11:30;;;;;;;;;;;15.40;60.50;;;;;;4916868;28;20381;-56
2021/03/17 09:14:00;;;;;;;;;;;15.30;60.60;;;;;;4899626;29;19990;-55
2021/03/17 09:16:26;;;;;;;;;;;15.40;60.60;;;;;;4916820;29;19907;-54
2021/03/17 09:19:05;;;;;;;;;;;15.30;60.60;;;;;;4916569;29;19993;-56
2021/03/17 09:21:31;;;;;;;;;;;15.30;60.50;;;;;;4916464;29;19918;-56
2021/03/17 09:23:57;;;;;;;;;;;15.10;61.10;;;;;;4916058;29;19915;-56
2021/03/17 09:26:29;;;;;;;;;;;15.30;60.50;;;;;;4916482;29;20006;-55
2021/03/17 09:28:55;;;;;;;;;;;15.30;60.00;;;;;;4916730;29;20430;-56
2021/03/17 09:31:22;;;;;;;;;;;15.30;60.00;;;;;;4916256;29;19911;-54
2021/03/17 09:33:48;;;;;;;;;;;15.30;60.00;;;;;;4915119;29;19918;-56
2021/03/17 09:36:15;;;;;;;;;;;15.20;59.70;;;;;;4915636;29;19959;-56
2021/03/17 09:38:40;;;;;;;;;;;15.30;59.60;;;;;;4915982;29;19907;-54
2021/03/17 09:41:06;;;;;;;;;;;15.50;59.40;;;;;;4915828;29;19914;-52
2021/03/17 09:43:42;;;;;;;;;;;15.50;59.10;;;;;;4916082;29;19921;-54
2021/03/17 09:46:27;;;;;;;;;;;15.50;59.00;;;;;;4916166;29;19911;-55
2021/03/17 09:48:53;;;;;;;;;;;15.50;58.80;;;;;;4916036;29;19958;-54
2021/03/17 09:51:20;;;;;;;;;;;15.40;58.60;;;;;;4915510;29;19907;-54
2021/03/17 09:53:46;;;;;;;;;;;15.50;58.40;;;;;;4915321;29;19907;-55
2021/03/17 09:56:12;;;;;;;;;;;15.50;58.40;;;;;;4915351;29;19907;-56
2021/03/17 09:58:39;;;;;;;;;;;15.60;58.50;;;;;;4915919;29;19911;-55
2021/03/17 10:01:10;;;;;;;;;;;15.60;58.40;;;;;;4915962;29;19907;-55
2021/03/17 10:03:36;;;;;;;;;;;15.60;58.20;;;;;;4915775;29;19915;-55
2021/03/17 10:06:01;;;;;;;;;;;15.50;58.20;;;;;;4916129;29;19907;-55
2021/03/17 10:08:27;;;;;;;;;;;15.60;58.30;;;;;;4898835;29;19911;-55
2021/03/17 10:10:52;;;;;;;;;;;15.50;58.20;;;;;;4899865;29;19958;-55
2021/03/17 10:13:18;;;;;;;;;;;15.60;58.10;;;;;;4916130;29;19918;-55
2021/03/17 10:15:43;;;;;;;;;;;15.60;58.10;;;;;;4915798;29;19906;-55
2021/03/17 10:18:14;;;;;;;;;;;15.70;58.10;;;;;;4915654;29;19907;-53
2021/03/17 10:20:39;;;;;;;;;;;15.70;58.10;;;;;;4915764;29;19908;-55
2021/03/17 10:23:05;;;;;;;;;;;15.50;57.80;;;;;;4915978;29;19915;-56
2021/03/17 10:25:30;;;;;;;;;;;15.60;57.90;;;;;;4915661;29;20328;-55
2021/03/17 10:28:09;;;;;;;;;;;15.60;57.90;;;;;;4915874;29;19918;-55
2021/03/17 10:30:39;;;;;;;;;;;15.70;57.80;;;;;;4915702;29;19914;-56
2021/03/17 10:33:08;;;;;;;;;;;16.30;58.10;;;;;;4898661;29;19907;-56
2021/03/17 10:35:34;;;;;;;;;;;15.70;57.70;;;;;;4915708;29;19907;-55
2021/03/17 10:38:00;;;;;;;;;;;15.70;57.70;;;;;;4915195;29;19907;-55
2021/03/17 10:40:26;;;;;;;;;;;16.00;57.80;;;;;;4915523;29;19914;-56
2021/03/17 10:42:53;;;;;;;;;;;15.70;57.60;;;;;;4915651;29;19925;-52
2021/03/17 10:45:21;;;;;;;;;;;15.60;57.50;;;;;;4915882;29;19911;-55
2021/03/17 10:47:47;;;;;;;;;;;15.50;57.50;;;;;;4915325;29;19914;-55
2021/03/17 10:50:15;;;;;;;;;;;15.70;57.50;;;;;;4915450;29;19907;-55
2021/03/17 10:52:44;;;;;;;;;;;15.50;57.40;;;;;;4915626;29;19907;-55
2021/03/17 10:55:21;;;;;;;;;;;15.50;57.00;;;;;;4898304;29;19988;-55
2021/03/17 10:57:47;;;;;;;;;;;15.60;57.00;;;;;;4915792;29;19914;-56
2021/03/17 11:00:27;;;;;;;;;;;15.70;57.20;;;;;;4915328;29;19911;-54
2021/03/17 11:02:53;;;;;;;;;;;15.70;57.00;;;;;;4918926;29;20021;-55
2021/03/17 11:05:28;;;;;;;;;;;15.70;57.10;;;;;;4918815;29;19978;-55
2021/03/17 11:07:53;;;;;;;;;;;15.70;57.10;;;;;;4918631;29;19917;-54
2021/03/17 11:10:28;;;;;;;;;;;15.70;57.10;;;;;;4901987;29;19919;-55
2021/03/17 11:12:54;;;;;;;;;;;15.70;56.90;;;;;;4918910;29;20005;-55
2021/03/17 11:15:24;;;;;;;;;;;15.70;56.90;;;;;;4918744;29;19942;-55
2021/03/17 11:17:53;;;;;;;;;;;15.70;56.90;;;;;;4918661;29;19907;-55
2021/03/17 11:20:19;;;;;;;;;;;15.70;57.00;;;;;;4918757;29;19915;-56
2021/03/17 11:22:44;;;;;;;;;;;15.60;57.10;;;;;;4918708;29;19914;-56
2021/03/17 11:25:11;;;;;;;;;;;15.60;57.10;;;;;;4918693;29;20046;-56
2021/03/17 11:27:36;;;;;;;;;;;15.60;57.20;;;;;;4918447;29;19914;-55
2021/03/17 11:30:02;;;;;;;;;;;15.50;57.20;;;;;;4918628;29;19907;-56
2021/03/17 11:32:29;;;;;;;;;;;15.50;57.30;;;;;;4918496;29;20024;-54
2021/03/17 11:34:55;;;;;;;;;;;15.30;57.10;;;;;;4918308;29;19911;-55
2021/03/17 11:37:20;;;;;;;;;;;15.90;57.50;;;;;;4918347;29;20031;-56
2021/03/17 11:39:46;;;;;;;;;;;15.50;57.40;;;;;;4918349;29;20409;-56
2021/03/17 11:42:11;;;;;;;;;;;15.30;57.20;;;;;;4901159;29;19923;-53
2021/03/17 11:44:37;;;;;;;;;;;15.40;57.20;;;;;;4900943;29;19947;-55
2021/03/17 11:47:02;;;;;;;;;;;15.40;57.20;;;;;;4885455;29;19911;-56
2021/03/17 11:49:28;;;;;;;;;;;16.00;57.50;;;;;;4918187;29;19911;-55
2021/03/17 11:51:53;;;;;;;;;;;15.40;57.20;;;;;;4900962;29;19955;-55
2021/03/17 11:54:19;;;;;;;;;;;15.40;57.20;;;;;;4918143;29;20315;-55
2021/03/17 11:56:44;;;;;;;;;;;15.40;57.20;;;;;;4917859;29;20289;-56
2021/03/17 11:59:10;;;;;;;;;;;15.30;57.00;;;;;;4917868;29;19907;-54
2021/03/17 12:01:35;;;;;;;;;;;15.40;57.10;;;;;;4917795;29;19907;-56
2021/03/17 12:04:01;;;;;;;;;;;15.40;57.10;;;;;;4917652;29;20014;-55
2021/03/17 12:06:26;;;;;;;;;;;15.30;57.00;;;;;;4917023;29;19907;-56
2021/03/17 12:08:52;;;;;;;;;;;15.40;57.10;;;;;;4917364;29;20279;-55
2021/03/17 12:11:18;;;;;;;;;;;15.40;57.10;;;;;;4918812;28;20011;-55
2021/03/17 12:13:43;;;;;;;;;;;15.30;57.10;;;;;;4917099;29;19918;-54
2021/03/17 12:16:09;;;;;;;;;;;15.40;57.20;;;;;;4917845;29;19926;-57
2021/03/17 12:18:34;;;;;;;;;;;15.30;57.20;;;;;;4917806;29;19907;-56
2021/03/17 12:21:00;;;;;;;;;;;15.30;57.30;;;;;;4917381;29;19913;-56
2021/03/17 12:23:25;;;;;;;;;;;15.30;57.40;;;;;;4917435;29;19922;-54
2021/03/17 12:25:51;;;;;;;;;;;15.20;57.40;;;;;;4917589;29;19954;-56
2021/03/17 12:28:16;;;;;;;;;;;15.20;57.40;;;;;;4917653;29;19914;-56
2021/03/17 12:30:42;;;;;;;;;;;14.90;57.30;;;;;;4917361;29;19907;-56
2021/03/17 12:33:08;;;;;;;;;;;15.00;57.30;;;;;;4917369;29;19942;-53
2021/03/17 12:35:33;;;;;;;;;;;15.10;57.40;;;;;;4917538;29;20338;-56
2021/03/17 12:37:59;;;;;;;;;;;15.20;57.40;;;;;;4916629;29;19913;-55
2021/03/17 12:40:27;;;;;;;;;;;15.60;57.70;;;;;;4917296;29;19914;-56
2021/03/17 12:42:52;;;;;;;;;;;15.10;57.40;;;;;;4917333;29;19950;-55
2021/03/17 12:45:19;;;;;;;;;;;15.10;57.40;;;;;;4917330;29;19927;-55
2021/03/17 12:47:45;;;;;;;;;;;15.10;57.10;;;;;;4917304;29;19914;-56
2021/03/17 12:50:12;;;;;;;;;;;15.20;57.10;;;;;;4917230;29;20423;-54
2021/03/17 12:52:38;;;;;;;;;;;15.30;56.90;;;;;;4917172;29;19978;-54
2021/03/17 12:55:05;;;;;;;;;;;15.30;56.70;;;;;;4916958;29;19918;-55
2021/03/17 12:57:30;;;;;;;;;;;15.40;56.60;;;;;;4916694;29;19931;-56
2021/03/17 12:59:57;;;;;;;;;;;15.50;56.40;;;;;;4916907;29;19994;-56
2021/03/17 13:02:23;;;;;;;;;;;15.60;56.20;;;;;;4917078;29;19915;-56
2021/03/17 13:04:48;;;;;;;;;;;15.50;56.10;;;;;;4916704;29;19911;-55
2021/03/17 13:07:14;;;;;;;;;;;15.40;56.00;;;;;;4916701;29;20001;-56
2021/03/17 13:09:40;;;;;;;;;;;15.60;55.90;;;;;;4916900;29;19914;-55
2021/03/17 13:12:05;;;;;;;;;;;16.30;56.00;;;;;;4916812;29;19961;-57
2021/03/17 13:14:31;;;;;;;;;;;15.80;55.60;;;;;;4916687;29;19958;-57
2021/03/17 13:16:56;;;;;;;;;;;15.90;55.40;;;;;;4916781;29;20161;-57
2021/03/17 13:19:22;;;;;;;;;;;16.10;55.00;;;;;;4916683;29;19913;-56
2021/03/17 13:21:48;;;;;;;;;;;16.10;54.50;;;;;;4916747;29;19907;-56
2021/03/17 13:24:14;;;;;;;;;;;16.30;54.50;;;;;;4916796;29;19974;-57
2021/03/17 13:26:40;;;;;;;;;;;16.30;54.20;;;;;;4916388;29;19908;-56
2021/03/17 13:29:06;;;;;;;;;;;16.40;53.80;;;;;;4916623;29;19942;-56
2021/03/17 13:31:31;;;;;;;;;;;16.70;53.50;;;;;;4916712;29;19958;-56
2021/03/17 13:33:57;;;;;;;;;;;16.80;53.90;;;;;;4916546;29;19907;-57
2021/03/17 13:36:22;;;;;;;;;;;16.60;53.20;;;;;;4899464;29;19907;-56
2021/03/17 13:38:48;;;;;;;;;;;16.80;53.10;;;;;;4916227;29;20393;-57
2021/03/17 13:41:13;;;;;;;;;;;17.00;52.80;;;;;;4916325;29;19957;-56
2021/03/17 13:43:39;;;;;;;;;;;16.80;52.60;;;;;;4916154;29;19922;-56
2021/03/17 13:46:04;;;;;;;;;;;17.00;52.80;;;;;;4916530;29;19915;-56
2021/03/17 13:48:30;;;;;;;;;;;17.00;52.90;;;;;;4916131;29;19914;-57
2021/03/17 13:50:55;;;;;;;;;;;17.00;52.90;;;;;;4916170;29;19994;-56
2021/03/17 13:53:21;;;;;;;;;;;17.10;53.10;;;;;;4916422;29;19917;-57
2021/03/17 13:55:46;;;;;;;;;;;17.00;53.20;;;;;;4916412;29;19907;-57
2021/03/17 13:58:12;;;;;;;;;;;16.90;53.20;;;;;;4916424;29;19914;-56
2021/03/17 14:00:38;;;;;;;;;;;16.90;53.30;;;;;;4916350;29;20339;-57
2021/03/17 14:03:03;;;;;;;;;;;16.90;53.30;;;;;;4916117;29;19919;-56
2021/03/17 14:05:29;;;;;;;;;;;16.90;53.40;;;;;;4916262;29;19969;-55
2021/03/17 14:07:55;;;;;;;;;;;16.80;53.50;;;;;;4916344;29;19911;-57
2021/03/17 14:10:31;;;;;;;;;;;16.70;53.50;;;;;;4916932;29;19915;-55
2021/03/17 14:12:56;;;;;;;;;;;16.70;53.70;;;;;;4922279;29;19961;-57
2021/03/17 14:15:22;;;;;;;;;;;16.60;53.70;;;;;;4899023;29;19938;-56
2021/03/17 14:17:49;;;;;;;;;;;16.70;54.00;;;;;;4915855;29;20354;-56